Time;durP1;ratioP1;P1;durP2;ratioP2;P2;SDS_P1;SDS_P2;PMS_P1;PMS_P2;Temp;Humidity;BMP_temperature;BMP_pressure;BME280_temperature;BME280_humidity;BME280_pressure;Samples;Min_cycle;Max_cycle;Signal;HPM_P1;HPM_P2
2021/10/02 04:02:05;;;;;;;2.30;2.23;;;13.20;99.90;;;;;;5198582;23;20598;-70
2021/10/02 04:04:32;;;;;;;3.10;2.90;;;13.10;99.90;;;;;;4933781;29;20521;-72
2021/10/02 04:06:59;;;;;;;2.90;2.70;;;13.10;99.90;;;;;;4935030;28;20560;-72
2021/10/02 04:09:26;;;;;;;2.93;2.83;;;13.10;99.90;;;;;;4934975;29;20582;-71
2021/10/02 04:11:53;;;;;;;3.03;2.93;;;13.00;99.90;;;;;;4935173;29;20478;-72
2021/10/02 04:14:20;;;;;;;2.57;2.37;;;13.00;99.90;;;;;;4934535;29;20466;-71
2021/10/02 04:16:47;;;;;;;3.88;3.63;;;13.00;99.90;;;;;;4934994;29;20513;-71
2021/10/02 04:19:15;;;;;;;3.47;3.28;;;13.00;99.90;;;;;;4933837;29;20359;-71
2021/10/02 04:21:41;;;;;;;2.75;2.65;;;12.90;99.90;;;;;;4935141;29;20297;-71
2021/10/02 04:24:08;;;;;;;5.97;3.15;;;13.00;99.90;;;;;;4934662;29;20249;-71
2021/10/02 04:26:35;;;;;;;4.97;3.00;;;12.90;99.90;;;;;;4926907;29;20271;-71
2021/10/02 04:29:02;;;;;;;3.30;3.00;;;12.90;99.90;;;;;;4915840;29;20498;-71
2021/10/02 04:31:28;;;;;;;3.57;3.37;;;12.80;99.90;;;;;;4915872;29;20634;-71
2021/10/02 04:33:55;;;;;;;5.10;3.47;;;12.80;99.90;;;;;;4914740;29;20474;-72
2021/10/02 04:36:23;;;;;;;5.25;3.95;;;12.70;99.90;;;;;;4916035;29;20498;-71
2021/10/02 04:38:50;;;;;;;3.63;3.42;;;12.70;99.90;;;;;;4915587;29;20262;-71
2021/10/02 04:41:16;;;;;;;4.40;4.20;;;12.70;99.90;;;;;;4915693;29;20305;-71
2021/10/02 04:43:44;;;;;;;4.10;3.70;;;12.70;99.90;;;;;;4915330;29;20927;-71
2021/10/02 04:46:12;;;;;;;2.90;2.80;;;12.70;99.90;;;;;;4915612;29;20270;-70
2021/10/02 04:48:40;;;;;;;3.47;3.30;;;12.70;99.90;;;;;;4914746;29;20655;-71
2021/10/02 04:51:06;;;;;;;4.28;3.75;;;12.70;99.90;;;;;;4915772;29;20561;-71
2021/10/02 04:53:35;;;;;;;4.13;3.92;;;12.70;99.90;;;;;;4915227;29;20214;-71
2021/10/02 04:56:05;;;;;;;4.55;4.15;;;12.70;99.90;;;;;;4915816;29;20219;-71
2021/10/02 04:58:32;;;;;;;4.10;3.80;;;12.80;99.90;;;;;;4915623;29;20270;-71
2021/10/02 05:00:59;;;;;;;4.23;3.90;;;12.80;99.90;;;;;;4915586;29;20310;-71
2021/10/02 05:03:26;;;;;;;3.70;3.40;;;12.70;99.90;;;;;;4916507;29;20557;-71
2021/10/02 05:05:53;;;;;;;4.25;3.95;;;12.70;99.90;;;;;;4919151;29;20510;-71
2021/10/02 05:08:20;;;;;;;4.55;4.25;;;12.70;99.90;;;;;;4919130;29;20222;-71
2021/10/02 05:10:48;;;;;;;4.57;4.27;;;12.70;99.90;;;;;;4919067;29;20281;-71
2021/10/02 05:13:14;;;;;;;4.53;4.23;;;12.70;99.90;;;;;;4918459;29;20467;-71
2021/10/02 05:15:41;;;;;;;4.97;4.10;;;12.70;99.90;;;;;;4919027;29;20530;-71
2021/10/02 05:18:08;;;;;;;3.90;3.70;;;12.70;99.90;;;;;;4918217;29;20466;-70
2021/10/02 05:20:35;;;;;;;4.20;4.00;;;12.80;99.90;;;;;;4918842;29;20502;-71
2021/10/02 05:23:02;;;;;;;4.90;3.67;;;12.80;99.90;;;;;;4918459;29;20518;-71
2021/10/02 05:25:28;;;;;;;3.75;3.60;;;12.80;99.90;;;;;;4918775;29;20703;-71
2021/10/02 05:27:57;;;;;;;3.95;3.78;;;12.70;99.90;;;;;;4918497;29;20630;-71
2021/10/02 05:30:24;;;;;;;4.07;3.88;;;12.70;99.90;;;;;;4918789;29;20206;-71
2021/10/02 05:32:50;;;;;;;4.10;3.80;;;12.70;99.90;;;;;;4917959;29;20766;-71
2021/10/02 05:35:17;;;;;;;4.45;4.05;;;12.70;99.90;;;;;;4918138;29;20466;-71
2021/10/02 05:37:44;;;;;;;4.40;4.10;;;12.70;99.90;;;;;;4918559;29;20210;-70
2021/10/02 05:40:11;;;;;;;4.25;4.05;;;12.70;99.90;;;;;;4918234;29;20227;-71
2021/10/02 05:42:38;;;;;;;3.40;3.20;;;12.70;99.90;;;;;;4918318;29;20262;-70
2021/10/02 05:45:06;;;;;;;4.35;4.05;;;12.60;99.90;;;;;;4918570;29;20259;-71
2021/10/02 05:47:33;;;;;;;4.23;4.03;;;12.60;99.90;;;;;;4918797;29;20295;-70
2021/10/02 05:50:01;;;;;;;6.32;5.82;;;12.60;99.90;;;;;;4918027;29;20885;-72
2021/10/02 05:52:28;;;;;;;4.88;4.22;;;12.60;99.90;;;;;;4918490;29;20298;-72
2021/10/02 05:54:54;;;;;;;3.75;3.53;;;12.60;99.90;;;;;;4918114;29;20258;-70
2021/10/02 05:57:21;;;;;;;4.78;4.38;;;12.60;99.90;;;;;;4918658;29;20600;-70
2021/10/02 05:59:48;;;;;;;4.22;3.92;;;12.50;99.90;;;;;;4917978;29;20262;-70
2021/10/02 06:02:16;;;;;;;4.93;3.95;;;12.60;99.90;;;;;;4917932;29;20246;-70
2021/10/02 06:04:43;;;;;;;3.70;3.60;;;12.50;99.90;;;;;;4917103;29;20215;-70
2021/10/02 06:07:10;;;;;;;4.00;3.90;;;12.50;99.90;;;;;;4918108;29;20219;-70
2021/10/02 06:09:37;;;;;;;4.28;4.10;;;12.50;99.90;;;;;;4917856;29;20641;-67
2021/10/02 06:12:04;;;;;;;4.30;3.90;;;12.60;99.90;;;;;;4918035;29;20313;-69
2021/10/02 06:14:30;;;;;;;4.07;3.85;;;12.60;99.90;;;;;;4916956;29;20214;-69
2021/10/02 06:16:57;;;;;;;3.85;3.55;;;12.60;99.90;;;;;;4918215;29;20570;-68
2021/10/02 06:19:25;;;;;;;4.35;4.05;;;12.70;99.90;;;;;;4917640;29;20243;-68
2021/10/02 06:21:52;;;;;;;4.50;4.20;;;12.70;99.90;;;;;;4917479;29;20291;-69
2021/10/02 06:24:18;;;;;;;5.30;4.27;;;12.70;99.90;;;;;;4917545;29;20253;-68
2021/10/02 06:26:45;;;;;;;4.70;3.83;;;12.70;99.90;;;;;;4918062;29;20516;-69
2021/10/02 06:29:12;;;;;;;3.88;3.58;;;12.70;99.90;;;;;;4917296;29;20254;-69
2021/10/02 06:31:39;;;;;;;3.90;3.70;;;12.70;99.90;;;;;;4917691;29;20222;-69
2021/10/02 06:34:05;;;;;;;3.90;3.60;;;12.70;99.90;;;;;;4916668;29;20483;-68
2021/10/02 06:36:33;;;;;;;4.47;4.27;;;12.80;99.90;;;;;;4917413;29;20239;-69
2021/10/02 06:39:02;;;;;;;4.07;3.73;;;12.80;99.90;;;;;;4917680;29;20904;-68
2021/10/02 06:41:28;;;;;;;4.10;3.90;;;12.80;99.90;;;;;;4930767;29;20526;-69
2021/10/02 06:43:55;;;;;;;4.20;4.00;;;12.80;99.90;;;;;;4928819;29;20210;-68
2021/10/02 06:46:22;;;;;;;4.05;3.55;;;12.80;99.90;;;;;;4930705;29;20471;-69
2021/10/02 06:48:48;;;;;;;4.47;4.10;;;12.70;99.90;;;;;;4930560;29;20215;-68
2021/10/02 06:51:15;;;;;;;4.35;4.15;;;12.80;99.90;;;;;;4925409;29;20688;-68
2021/10/02 06:53:43;;;;;;;4.47;4.27;;;12.80;99.90;;;;;;4918224;29;20210;-68
2021/10/02 06:56:10;;;;;;;4.03;3.90;;;12.80;99.90;;;;;;4917936;29;20577;-68
2021/10/02 06:58:36;;;;;;;3.53;3.42;;;12.90;99.90;;;;;;4917922;29;20500;-68
2021/10/02 07:01:03;;;;;;;4.85;4.55;;;12.90;99.90;;;;;;4917740;29;20286;-68
2021/10/02 07:03:30;;;;;;;4.43;4.20;;;12.90;99.90;;;;;;4917193;29;20210;-69
2021/10/02 07:05:56;;;;;;;4.40;4.17;;;12.90;99.90;;;;;;4917273;29;20482;-69
2021/10/02 07:08:23;;;;;;;4.23;4.10;;;12.90;99.90;;;;;;4917015;29;20474;-69
2021/10/02 07:10:51;;;;;;;6.63;4.33;;;12.90;99.90;;;;;;4916934;29;20897;-69
2021/10/02 07:13:18;;;;;;;5.13;4.10;;;12.90;99.90;;;;;;4916968;29;20795;-69
2021/10/02 07:15:44;;;;;;;3.77;3.60;;;12.90;99.90;;;;;;4917133;29;20878;-69
2021/10/02 07:18:11;;;;;;;4.20;4.00;;;13.00;99.90;;;;;;4915797;29;20534;-69
2021/10/02 07:20:38;;;;;;;3.60;3.40;;;13.00;99.90;;;;;;4916628;29;20494;-69
2021/10/02 07:23:04;;;;;;;3.23;3.23;;;13.10;99.90;;;;;;4916616;29;20545;-69
2021/10/02 07:25:31;;;;;;;4.33;4.00;;;13.10;99.90;;;;;;4916220;29;20575;-68
2021/10/02 07:28:00;;;;;;;4.20;3.90;;;13.20;99.90;;;;;;4916652;29;20549;-70
2021/10/02 07:30:26;;;;;;;5.00;3.70;;;13.20;99.90;;;;;;4916573;29;20851;-70
2021/10/02 07:32:53;;;;;;;3.80;3.50;;;13.30;99.90;;;;;;4915968;29;20533;-70
2021/10/02 07:35:21;;;;;;;3.40;3.30;;;13.30;99.90;;;;;;4916940;29;20879;-70
2021/10/02 07:37:47;;;;;;;3.83;3.63;;;13.40;99.90;;;;;;4916458;29;20470;-71
2021/10/02 07:40:14;;;;;;;4.00;3.80;;;13.40;99.90;;;;;;4916578;29;20537;-71
2021/10/02 07:42:50;;;;;;;3.57;3.30;;;13.40;99.90;;;;;;4916149;29;20585;-70
2021/10/02 07:45:21;;;;;;;4.77;3.93;;;13.40;99.90;;;;;;4916428;29;20484;-71
2021/10/02 07:47:50;;;;;;;3.60;3.40;;;13.50;99.90;;;;;;4916017;29;20549;-70
2021/10/02 07:50:18;;;;;;;3.80;3.70;;;13.50;99.90;;;;;;4915969;29;20915;-71
2021/10/02 07:52:45;;;;;;;3.77;3.57;;;13.60;99.90;;;;;;4916028;29;20812;-69
2021/10/02 07:55:13;;;;;;;3.70;3.50;;;13.60;99.90;;;;;;4916064;29;20467;-69
2021/10/02 07:57:42;;;;;;;3.23;3.03;;;13.80;99.90;;;;;;4916004;29;20463;-69
2021/10/02 08:00:12;;;;;;;4.20;4.00;;;13.90;99.90;;;;;;4916203;29;20566;-70
2021/10/02 08:02:43;;;;;;;3.23;3.07;;;14.00;99.90;;;;;;4915789;29;20502;-69
2021/10/02 08:05:10;;;;;;;3.60;3.50;;;14.10;99.90;;;;;;4915634;29;20839;-70
2021/10/02 08:07:39;;;;;;;3.60;3.40;;;14.10;99.90;;;;;;4916067;29;20558;-69
2021/10/02 08:10:07;;;;;;;3.30;3.20;;;14.00;99.90;;;;;;4915888;29;20525;-69
2021/10/02 08:12:33;;;;;;;4.40;4.10;;;14.00;99.90;;;;;;4915769;29;20529;-69
2021/10/02 08:15:00;;;;;;;4.17;3.93;;;14.00;99.90;;;;;;4916011;29;20474;-69
2021/10/02 08:17:29;;;;;;;4.13;3.93;;;14.00;99.90;;;;;;4916046;29;20498;-69
2021/10/02 08:20:00;;;;;;;4.30;4.00;;;14.00;99.90;;;;;;4915101;29;20470;-69
2021/10/02 08:22:27;;;;;;;4.80;4.40;;;14.00;99.90;;;;;;4915640;29;21050;-69
2021/10/02 08:24:54;;;;;;;4.87;4.40;;;14.00;99.90;;;;;;4915675;29;20548;-69
2021/10/02 08:27:22;;;;;;;4.83;4.53;;;14.00;99.90;;;;;;4916400;29;20533;-69
2021/10/02 08:29:50;;;;;;;6.37;4.90;;;14.00;99.90;;;;;;4915784;29;20892;-69
2021/10/02 08:32:18;;;;;;;4.40;4.20;;;14.00;99.90;;;;;;4915921;29;20629;-69
2021/10/02 08:34:44;;;;;;;5.63;4.63;;;14.00;99.90;;;;;;4914770;29;20947;-69
2021/10/02 08:37:12;;;;;;;6.30;5.70;;;14.00;99.90;;;;;;4915643;29;20923;-69
2021/10/02 08:39:39;;;;;;;5.83;5.47;;;14.00;99.90;;;;;;4919327;29;21023;-69
2021/10/02 08:42:06;;;;;;;7.37;5.10;;;14.00;99.90;;;;;;4919051;29;21005;-69
2021/10/02 08:44:33;;;;;;;5.37;4.63;;;14.00;99.90;;;;;;4919464;29;20462;-69
2021/10/02 08:47:02;;;;;;;5.40;4.70;;;14.10;99.90;;;;;;4919795;29;20545;-69
2021/10/02 08:49:53;;;;;;;5.27;4.70;;;14.20;99.90;;;;;;4918417;29;20474;-69
2021/10/02 08:52:23;;;;;;;5.40;5.00;;;14.20;99.90;;;;;;4905004;29;20482;-69
2021/10/02 08:54:51;;;;;;;5.27;4.93;;;14.20;99.90;;;;;;4919337;29;20533;-69
2021/10/02 08:57:21;;;;;;;5.70;5.30;;;14.20;99.90;;;;;;4918192;29;20514;-71
2021/10/02 08:59:51;;;;;;;6.33;5.53;;;14.30;99.90;;;;;;4919003;29;20462;-71
2021/10/02 09:02:18;;;;;;;5.40;4.90;;;14.20;99.90;;;;;;4918723;29;20577;-69
2021/10/02 09:04:45;;;;;;;5.40;4.90;;;14.20;99.90;;;;;;4918570;29;20779;-69
2021/10/02 09:07:15;;;;;;;5.03;4.73;;;14.20;99.90;;;;;;4919283;29;20526;-71
2021/10/02 09:09:45;;;;;;;5.37;4.87;;;14.20;99.90;;;;;;4918833;29;20932;-71
2021/10/02 09:12:12;;;;;;;5.37;4.90;;;14.30;99.90;;;;;;4918872;29;20570;-70
2021/10/02 09:14:39;;;;;;;4.90;4.50;;;14.30;99.90;;;;;;4918855;29;20474;-71
2021/10/02 09:17:06;;;;;;;5.30;5.00;;;14.30;99.90;;;;;;4935577;29;20513;-71
2021/10/02 09:19:33;;;;;;;4.77;4.30;;;14.30;99.90;;;;;;4937074;29;20465;-71
2021/10/02 09:22:03;;;;;;;5.20;4.80;;;14.40;99.90;;;;;;4937657;29;21053;-70
2021/10/02 09:24:33;;;;;;;4.73;4.33;;;14.50;99.90;;;;;;4937849;29;20464;-71
2021/10/02 09:27:01;;;;;;;5.27;4.87;;;14.60;99.90;;;;;;4937800;29;20892;-69
2021/10/02 09:29:37;;;;;;;5.10;4.80;;;14.60;99.90;;;;;;4937167;29;20536;-69
2021/10/02 09:32:06;;;;;;;4.60;4.40;;;14.70;99.90;;;;;;4937173;29;20516;-70
2021/10/02 09:34:43;;;;;;;5.53;5.03;;;14.70;99.90;;;;;;4936828;29;20513;-69
2021/10/02 09:37:16;;;;;;;5.00;4.60;;;14.70;99.90;;;;;;4937819;29;20472;-69
2021/10/02 09:39:44;;;;;;;6.10;4.90;;;14.80;99.90;;;;;;4937359;29;20973;-69
2021/10/02 09:42:23;;;;;;;5.10;4.70;;;14.90;99.90;;;;;;4937360;29;20891;-69
2021/10/02 09:44:49;;;;;;;5.60;5.20;;;15.00;99.90;;;;;;4937193;29;20532;-69
2021/10/02 09:47:17;;;;;;;6.97;5.30;;;15.10;99.90;;;;;;4937485;29;20946;-69
2021/10/02 09:49:46;;;;;;;5.37;4.50;;;15.20;99.90;;;;;;4936248;29;20536;-69
2021/10/02 09:52:30;;;;;;;4.60;4.30;;;15.40;99.90;;;;;;4937337;29;20886;-69
2021/10/02 09:54:58;;;;;;;4.23;3.93;;;15.50;99.90;;;;;;4937363;29;20477;-69
2021/10/02 09:57:26;;;;;;;5.07;4.67;;;15.60;99.90;;;;;;4937509;29;20495;-69
2021/10/02 10:00:08;;;;;;;6.50;4.57;;;15.60;99.90;;;;;;4936630;29;20480;-69
2021/10/02 10:02:39;;;;;;;4.53;4.23;;;15.60;99.90;;;;;;4936661;29;20497;-69
2021/10/02 10:05:06;;;;;;;4.67;4.27;;;15.70;99.90;;;;;;4929685;29;20481;-69
2021/10/02 10:07:33;;;;;;;5.17;4.87;;;15.70;99.90;;;;;;4915909;29;20486;-69
2021/10/02 10:10:02;;;;;;;4.70;4.40;;;15.80;99.90;;;;;;4917733;29;20503;-69
2021/10/02 10:12:30;;;;;;;4.10;3.90;;;15.70;99.90;;;;;;4917678;29;20510;-69
2021/10/02 10:14:57;;;;;;;4.23;4.13;;;15.70;99.90;;;;;;4917713;29;20526;-69
2021/10/02 10:17:25;;;;;;;4.80;4.40;;;15.80;99.90;;;;;;4917678;29;20470;-69
2021/10/02 10:20:05;;;;;;;4.50;3.87;;;15.90;99.90;;;;;;4916937;29;20470;-69
2021/10/02 10:22:32;;;;;;;4.27;3.97;;;16.00;99.90;;;;;;4917759;29;20518;-69
2021/10/02 10:25:01;;;;;;;4.27;3.70;;;16.20;99.90;;;;;;4917741;29;20549;-68
2021/10/02 10:27:38;;;;;;;3.80;3.60;;;16.30;99.90;;;;;;4917717;29;20470;-68
2021/10/02 10:30:08;;;;;;;3.70;3.50;;;16.40;99.90;;;;;;4917968;29;20481;-69
2021/10/02 10:32:37;;;;;;;4.37;4.17;;;16.50;99.90;;;;;;4917559;29;20522;-69
2021/10/02 10:35:05;;;;;;;4.27;3.97;;;16.50;99.90;;;;;;4916995;29;20561;-68
2021/10/02 10:37:32;;;;;;;4.33;4.13;;;16.60;99.90;;;;;;4917578;29;20467;-68
2021/10/02 10:39:58;;;;;;;4.93;4.53;;;16.60;99.90;;;;;;4917175;29;20481;-68
2021/10/02 10:42:27;;;;;;;4.63;4.27;;;16.50;99.90;;;;;;4916796;29;20561;-68
2021/10/02 10:44:57;;;;;;;4.80;4.40;;;16.60;99.90;;;;;;4917043;29;20841;-71
2021/10/02 10:47:24;;;;;;;3.93;3.50;;;16.70;99.90;;;;;;4917330;29;20840;-71
2021/10/02 10:49:51;;;;;;;4.47;4.17;;;16.70;99.90;;;;;;4916199;29;20820;-71
2021/10/02 10:52:19;;;;;;;4.00;3.80;;;16.70;99.90;;;;;;4916953;29;20482;-72
2021/10/02 10:54:50;;;;;;;4.40;4.20;;;16.70;99.90;;;;;;4916801;29;20470;-71
2021/10/02 10:57:36;;;;;;;4.80;4.00;;;16.70;99.90;;;;;;4917347;29;20514;-72
2021/10/02 11:00:08;;;;;;;3.97;3.67;;;16.60;99.90;;;;;;4916714;29;20470;-71
2021/10/02 11:02:50;;;;;;;4.17;3.87;;;16.60;99.90;;;;;;4916365;29;20498;-72
2021/10/02 11:05:51;;;;;;;4.10;3.80;;;16.50;99.90;;;;;;4916263;29;20796;-71
2021/10/02 11:08:23;;;;;;;4.70;4.40;;;16.60;99.90;;;;;;4917123;29;20482;-72
2021/10/02 11:10:53;;;;;;;5.63;5.13;;;16.60;99.90;;;;;;4916767;29;20494;-72
2021/10/02 11:13:21;;;;;;;5.13;4.83;;;16.60;99.90;;;;;;4916322;29;20470;-72
2021/10/02 11:15:49;;;;;;;4.50;4.10;;;16.60;99.90;;;;;;4916609;29;20466;-72
2021/10/02 11:18:41;;;;;;;5.60;4.40;;;16.60;99.90;;;;;;4915114;29;20474;-71
2021/10/02 11:21:08;;;;;;;4.17;3.87;;;16.60;99.90;;;;;;4913177;29;20582;-72
2021/10/02 11:24:19;;;;;;;4.20;4.00;;;16.60;99.90;;;;;;4915989;29;20498;-69
2021/10/02 11:26:49;;;;;;;5.23;4.87;;;16.60;99.90;;;;;;4916464;29;20477;-69
2021/10/02 11:29:23;;;;;;;4.33;4.13;;;16.80;99.90;;;;;;4916608;29;20455;-71
2021/10/02 11:32:12;;;;;;;5.10;4.70;;;16.80;99.90;;;;;;4916167;29;20989;-69
2021/10/02 11:35:02;;;;;;;4.33;4.13;;;16.90;99.90;;;;;;4915384;29;20679;-69
2021/10/02 11:37:41;;;;;;;5.10;4.70;;;17.00;99.90;;;;;;4916683;29;20526;-69
2021/10/02 11:40:42;;;;;;;5.83;5.10;;;16.90;99.90;;;;;;4917338;29;20549;-69
2021/10/02 11:43:24;;;;;;;5.53;5.23;;;16.90;99.90;;;;;;4916094;29;20486;-69
2021/10/02 11:45:57;;;;;;;5.10;4.70;;;16.90;99.90;;;;;;4916779;29;20560;-72
2021/10/02 11:48:35;;;;;;;6.07;5.50;;;16.90;99.90;;;;;;4915895;29;20530;-72
2021/10/02 11:51:17;;;;;;;5.33;4.83;;;16.80;99.90;;;;;;4918010;29;20481;-72
2021/10/02 11:53:47;;;;;;;6.07;5.67;;;16.80;99.90;;;;;;4918066;29;20985;-72
2021/10/02 11:56:16;;;;;;;5.57;5.17;;;16.70;99.90;;;;;;4918010;29;20522;-72
2021/10/02 11:58:43;;;;;;;5.07;4.70;;;16.60;99.90;;;;;;4917975;29;20506;-72
2021/10/02 12:01:17;;;;;;;5.10;4.80;;;16.50;99.90;;;;;;4918052;29;21030;-72
2021/10/02 12:03:45;;;;;;;4.97;4.50;;;16.50;99.90;;;;;;4914802;29;20553;-71
2021/10/02 12:06:12;;;;;;;5.50;5.10;;;16.40;99.90;;;;;;4916195;29;20550;-71
2021/10/02 12:08:39;;;;;;;5.23;4.80;;;16.20;99.90;;;;;;4916627;29;20531;-72
2021/10/02 12:11:08;;;;;;;5.33;4.80;;;16.20;99.90;;;;;;4916470;29;20485;-72
2021/10/02 12:13:36;;;;;;;6.17;5.73;;;16.10;99.90;;;;;;4921807;29;20498;-72
2021/10/02 12:16:04;;;;;;;5.67;5.30;;;16.10;99.90;;;;;;4922139;29;20537;-72
2021/10/02 12:18:49;;;;;;;5.93;5.43;;;16.00;99.90;;;;;;4921411;29;20835;-71
2021/10/02 12:21:25;;;;;;;6.37;5.83;;;15.90;99.90;;;;;;4922359;29;20572;-71
2021/10/02 12:23:55;;;;;;;6.07;5.53;;;15.80;99.90;;;;;;4922563;29;20576;-71
2021/10/02 12:26:23;;;;;;;7.20;6.27;;;15.80;99.90;;;;;;4923567;29;20467;-71
2021/10/02 12:28:55;;;;;;;6.10;5.70;;;15.80;99.90;;;;;;4923392;29;20474;-72
2021/10/02 12:31:22;;;;;;;5.90;5.50;;;15.80;99.90;;;;;;4923589;29;20486;-72
2021/10/02 12:33:50;;;;;;;6.43;6.00;;;15.80;99.90;;;;;;4923095;29;20470;-72
2021/10/02 12:36:17;;;;;;;5.97;5.57;;;15.80;99.90;;;;;;4924238;29;20466;-72
2021/10/02 12:38:45;;;;;;;6.47;6.07;;;15.80;99.90;;;;;;4923527;29;20495;-72
2021/10/02 12:41:12;;;;;;;6.00;5.63;;;15.80;99.90;;;;;;4921619;29;20572;-70
2021/10/02 12:43:39;;;;;;;5.57;5.17;;;15.70;99.90;;;;;;4921364;29;20489;-70
2021/10/02 12:46:17;;;;;;;6.17;5.63;;;15.70;99.90;;;;;;4929162;29;20471;-71
2021/10/02 12:48:44;;;;;;;6.67;6.17;;;15.80;99.90;;;;;;4931158;29;20466;-70
2021/10/02 12:51:13;;;;;;;6.50;5.97;;;16.00;99.90;;;;;;4932721;29;20518;-70
2021/10/02 12:53:40;;;;;;;5.87;5.53;;;16.10;99.90;;;;;;4933021;29;20462;-69
2021/10/02 12:56:17;;;;;;;5.17;4.87;;;16.10;99.90;;;;;;4931431;29;20931;-69
2021/10/02 12:58:44;;;;;;;4.37;4.10;;;16.20;99.90;;;;;;4918972;29;20526;-68
2021/10/02 13:01:11;;;;;;;4.40;4.00;;;16.20;99.90;;;;;;4919108;29;20498;-70
2021/10/02 13:03:39;;;;;;;3.97;3.80;;;16.10;99.90;;;;;;4918444;29;20728;-69
2021/10/02 13:06:06;;;;;;;3.50;3.40;;;16.00;99.90;;;;;;4918056;29;20968;-70
2021/10/02 13:08:34;;;;;;;4.13;3.93;;;16.10;99.90;;;;;;4919202;29;20473;-69
2021/10/02 13:11:02;;;;;;;3.53;3.43;;;16.10;99.90;;;;;;4919754;29;20547;-69
2021/10/02 13:13:29;;;;;;;5.17;4.77;;;16.10;99.90;;;;;;4918668;29;20470;-69
2021/10/02 13:15:57;;;;;;;4.17;3.97;;;16.10;99.90;;;;;;4918852;29;20462;-69
2021/10/02 13:18:26;;;;;;;4.23;4.10;;;16.20;99.90;;;;;;4917792;29;20476;-69
2021/10/02 13:20:55;;;;;;;3.67;3.57;;;16.20;99.90;;;;;;4918987;29;20490;-69
2021/10/02 13:23:24;;;;;;;3.80;3.60;;;16.30;99.90;;;;;;4917607;29;20549;-70
2021/10/02 13:25:55;;;;;;;3.50;3.37;;;16.40;99.90;;;;;;4918481;29;20466;-70
2021/10/02 13:28:25;;;;;;;3.67;3.57;;;16.30;99.90;;;;;;4918693;29;20466;-69
2021/10/02 13:30:52;;;;;;;3.97;3.67;;;16.30;99.90;;;;;;4918665;29;20486;-69
2021/10/02 13:33:20;;;;;;;4.00;3.70;;;16.30;99.90;;;;;;4917226;29;20894;-70
2021/10/02 13:35:49;;;;;;;3.90;3.80;;;16.40;99.90;;;;;;4918363;29;20535;-69
2021/10/02 13:38:16;;;;;;;4.53;3.60;;;16.30;99.90;;;;;;4918323;29;20952;-68
2021/10/02 13:40:52;;;;;;;3.73;3.60;;;16.30;99.90;;;;;;4918253;29;20549;-71
2021/10/02 13:43:21;;;;;;;4.17;3.83;;;16.40;99.90;;;;;;4917953;29;20496;-72
2021/10/02 13:45:52;;;;;;;3.23;3.13;;;16.40;99.90;;;;;;4918315;29;20471;-72
2021/10/02 13:48:26;;;;;;;3.00;2.90;;;16.40;99.90;;;;;;4927827;28;20489;-73
2021/10/02 13:50:54;;;;;;;3.27;3.00;;;16.50;99.90;;;;;;4937369;29;20947;-72
2021/10/02 13:53:21;;;;;;;3.30;3.20;;;16.50;99.90;;;;;;4936768;29;20461;-72
2021/10/02 13:55:48;;;;;;;3.33;3.20;;;16.50;99.90;;;;;;4936766;29;20487;-71
2021/10/02 13:58:14;;;;;;;3.50;3.33;;;16.50;99.90;;;;;;4937432;29;20473;-71
2021/10/02 14:00:43;;;;;;;3.00;2.83;;;16.60;99.90;;;;;;4937445;29;20990;-72
2021/10/02 14:03:10;;;;;;;3.30;3.20;;;16.60;99.90;;;;;;4936141;29;20600;-71
2021/10/02 14:05:38;;;;;;;2.90;2.80;;;16.60;99.90;;;;;;4926925;29;20871;-72
2021/10/02 14:08:05;;;;;;;2.80;2.70;;;16.60;99.90;;;;;;4918034;29;20474;-71
2021/10/02 14:10:32;;;;;;;3.30;3.20;;;16.70;99.90;;;;;;4917826;29;20561;-71
2021/10/02 14:12:59;;;;;;;2.83;2.73;;;16.70;99.90;;;;;;4917388;29;20462;-71
2021/10/02 14:15:26;;;;;;;2.77;2.67;;;16.80;99.90;;;;;;4917681;29;20466;-71
2021/10/02 14:17:54;;;;;;;2.90;2.80;;;16.90;99.90;;;;;;4917407;29;20573;-72
2021/10/02 14:20:20;;;;;;;3.10;3.00;;;16.90;99.90;;;;;;4917720;29;20470;-72
2021/10/02 14:22:47;;;;;;;3.30;2.77;;;16.90;99.90;;;;;;4917209;29;20498;-72
2021/10/02 14:25:14;;;;;;;3.67;3.37;;;16.90;99.90;;;;;;4917317;29;20502;-70
2021/10/02 14:27:41;;;;;;;4.43;3.77;;;16.80;99.90;;;;;;4918154;29;20537;-69
2021/10/02 14:30:09;;;;;;;3.40;3.20;;;16.80;99.90;;;;;;4917264;29;20471;-70
2021/10/02 14:32:35;;;;;;;3.30;3.20;;;16.70;99.90;;;;;;4917504;29;20541;-72
2021/10/02 14:35:04;;;;;;;3.53;3.33;;;16.60;99.90;;;;;;4916015;29;20530;-69
2021/10/02 14:37:31;;;;;;;4.00;2.83;;;16.60;99.90;;;;;;4917570;29;20470;-69
2021/10/02 14:39:58;;;;;;;4.07;3.73;;;16.60;99.90;;;;;;4916932;29;20462;-69
2021/10/02 14:42:25;;;;;;;3.13;2.93;;;16.60;99.90;;;;;;4917339;29;20494;-69
2021/10/02 14:44:51;;;;;;;2.80;2.80;;;16.60;99.90;;;;;;4917106;29;20525;-69
2021/10/02 14:47:18;;;;;;;3.20;3.10;;;16.60;99.90;;;;;;4917799;29;20467;-69
2021/10/02 14:49:45;;;;;;;3.63;3.43;;;16.60;99.90;;;;;;4916513;29;20505;-69
2021/10/02 14:52:16;;;;;;;3.90;3.60;;;16.50;99.90;;;;;;4917241;29;20919;-69
2021/10/02 14:54:43;;;;;;;4.30;4.00;;;16.50;99.90;;;;;;4916657;29;20484;-69
2021/10/02 14:57:10;;;;;;;3.90;3.80;;;16.50;99.90;;;;;;4917457;29;20470;-69
2021/10/02 14:59:37;;;;;;;3.87;3.67;;;16.60;99.90;;;;;;4917022;29;20466;-69
2021/10/02 15:02:06;;;;;;;3.63;3.40;;;16.60;99.90;;;;;;4916791;29;20498;-69
2021/10/02 15:04:35;;;;;;;3.93;3.83;;;16.60;99.90;;;;;;4915668;29;20542;-69
2021/10/02 15:07:03;;;;;;;4.23;3.60;;;16.60;99.90;;;;;;4916543;29;20474;-69
2021/10/02 15:09:34;;;;;;;3.60;3.50;;;16.50;99.90;;;;;;4916848;29;20518;-69
2021/10/02 15:12:01;;;;;;;3.10;3.00;;;16.50;99.90;;;;;;4916894;29;20486;-69
2021/10/02 15:14:28;;;;;;;3.20;3.00;;;16.50;99.90;;;;;;4916459;29;20510;-69
2021/10/02 15:16:55;;;;;;;2.87;2.73;;;16.50;99.90;;;;;;4916635;29;20475;-69
2021/10/02 15:19:22;;;;;;;3.77;3.50;;;16.40;99.90;;;;;;4915460;29;20525;-70
2021/10/02 15:21:56;;;;;;;3.20;3.10;;;16.40;99.90;;;;;;4916438;29;20530;-69
2021/10/02 15:24:26;;;;;;;3.30;3.00;;;16.40;99.90;;;;;;4916224;29;20597;-69
2021/10/02 15:26:56;;;;;;;2.90;2.77;;;16.40;99.90;;;;;;4916466;29;20474;-69
2021/10/02 15:29:26;;;;;;;2.93;2.83;;;16.40;99.90;;;;;;4916685;29;20477;-69
2021/10/02 15:31:57;;;;;;;2.80;2.70;;;16.40;99.90;;;;;;4916389;29;20860;-68
2021/10/02 15:34:24;;;;;;;3.60;3.37;;;16.40;99.90;;;;;;4915285;29;20940;-69
2021/10/02 15:36:52;;;;;;;2.87;2.77;;;16.40;99.90;;;;;;4916523;29;20466;-69
2021/10/02 15:39:20;;;;;;;3.00;2.90;;;16.40;99.90;;;;;;4916497;29;20554;-68
2021/10/02 15:41:47;;;;;;;3.17;3.17;;;16.40;99.90;;;;;;4916465;29;20506;-69
2021/10/02 15:44:15;;;;;;;2.80;2.80;;;16.40;99.90;;;;;;4915909;29;20582;-69
2021/10/02 15:46:42;;;;;;;3.53;3.23;;;16.40;99.90;;;;;;4916063;29;20526;-70
2021/10/02 15:49:09;;;;;;;3.03;3.00;;;16.40;99.90;;;;;;4915637;29;20525;-68
2021/10/02 15:51:36;;;;;;;3.03;2.83;;;16.40;99.90;;;;;;4916320;29;20482;-68
2021/10/02 15:54:03;;;;;;;3.80;3.53;;;16.40;99.90;;;;;;4915773;29;20498;-70
2021/10/02 15:56:32;;;;;;;2.80;2.70;;;16.40;99.90;;;;;;4916136;29;20467;-71
2021/10/02 15:59:04;;;;;;;2.80;2.70;;;16.40;99.90;;;;;;4915957;29;20466;-70
2021/10/02 16:01:33;;;;;;;2.87;2.87;;;16.40;99.90;;;;;;4916697;29;20557;-71
2021/10/02 16:04:09;;;;;;;2.57;2.50;;;16.40;99.90;;;;;;4915668;29;20490;-71
2021/10/02 16:06:39;;;;;;;2.20;2.20;;;16.40;99.90;;;;;;4917326;29;20478;-72
2021/10/02 16:09:07;;;;;;;2.80;2.67;;;16.30;99.90;;;;;;4916828;29;20470;-71
2021/10/02 16:11:34;;;;;;;3.23;3.13;;;16.30;99.90;;;;;;4918334;29;20489;-71
2021/10/02 16:14:01;;;;;;;4.20;2.73;;;16.30;99.90;;;;;;4919416;29;20462;-72
2021/10/02 16:16:29;;;;;;;3.13;3.03;;;16.20;99.90;;;;;;4928152;29;20506;-70
2021/10/02 16:18:57;;;;;;;2.87;2.77;;;16.20;99.90;;;;;;4922327;29;20466;-70
2021/10/02 16:21:25;;;;;;;3.03;2.93;;;16.20;99.90;;;;;;4917091;29;20491;-68
2021/10/02 16:23:53;;;;;;;3.00;2.80;;;16.10;99.90;;;;;;4916727;29;20616;-69
2021/10/02 16:26:20;;;;;;;3.10;3.00;;;16.10;99.90;;;;;;4916120;29;20479;-72
2021/10/02 16:28:49;;;;;;;3.30;3.20;;;16.10;99.90;;;;;;4916117;29;20879;-69
2021/10/02 16:31:16;;;;;;;3.60;3.50;;;16.00;99.90;;;;;;4915963;29;20521;-68
2021/10/02 16:33:43;;;;;;;3.17;3.10;;;16.00;99.90;;;;;;4915074;29;20466;-69
2021/10/02 16:36:13;;;;;;;3.43;3.23;;;16.00;99.90;;;;;;4916171;29;20470;-69
2021/10/02 16:38:39;;;;;;;3.53;3.43;;;15.90;99.90;;;;;;4915455;29;20541;-70
2021/10/02 16:41:06;;;;;;;3.80;3.43;;;15.90;99.90;;;;;;4915922;29;20495;-71
2021/10/02 16:43:33;;;;;;;4.40;4.20;;;15.90;99.90;;;;;;4915489;29;20999;-71
2021/10/02 16:46:00;;;;;;;4.20;3.90;;;15.90;99.90;;;;;;4915809;29;20466;-71
2021/10/02 16:48:27;;;;;;;4.60;4.17;;;15.80;99.90;;;;;;4914867;29;20470;-71
2021/10/02 16:50:54;;;;;;;4.43;4.13;;;15.80;99.90;;;;;;4915762;29;20490;-71
2021/10/02 16:53:24;;;;;;;4.00;3.77;;;15.80;99.90;;;;;;4915192;29;20470;-71
2021/10/02 16:55:53;;;;;;;3.80;3.50;;;15.80;99.90;;;;;;4915922;29;20553;-71
2021/10/02 16:58:20;;;;;;;3.97;3.77;;;15.70;99.90;;;;;;4916676;29;20521;-71